createdAt,value
2018-12-03T00:00:02.183Z,983.92
2018-12-03T00:01:02.198Z,983.89
2018-12-03T00:02:02.221Z,983.9
2018-12-03T00:03:02.246Z,983.9
2018-12-03T00:04:02.267Z,983.9
2018-12-03T00:05:02.285Z,983.9
2018-12-03T00:06:02.319Z,983.89
2018-12-03T00:07:02.328Z,983.84
2018-12-03T00:08:02.349Z,983.86
2018-12-03T00:09:02.371Z,983.88
2018-12-03T00:10:02.395Z,983.9
2018-12-03T00:11:02.412Z,983.86
2018-12-03T00:12:02.434Z,983.83
2018-12-03T00:13:02.459Z,983.9
2018-12-03T00:14:02.481Z,983.86
2018-12-03T00:15:02.497Z,983.89
2018-12-03T00:16:02.518Z,983.93
2018-12-03T00:17:02.540Z,983.88
2018-12-03T00:18:02.566Z,983.84
2018-12-03T00:19:02.583Z,983.81
2018-12-03T00:20:02.604Z,983.8
2018-12-03T00:21:02.625Z,983.77
2018-12-03T00:22:02.647Z,983.79
2018-12-03T00:23:02.671Z,983.82
2018-12-03T00:24:02.688Z,983.83
2018-12-03T00:25:02.712Z,983.81
2018-12-03T00:26:02.732Z,983.82
2018-12-03T00:27:02.753Z,983.85
2018-12-03T00:28:02.774Z,983.81
2018-12-03T00:29:02.797Z,983.82
2018-12-03T00:30:02.817Z,983.86
2018-12-03T00:31:02.843Z,983.85
2018-12-03T00:32:02.860Z,983.84
2018-12-03T00:33:02.886Z,983.85
2018-12-03T00:34:02.902Z,983.84
2018-12-03T00:35:02.924Z,983.84
2018-12-03T00:36:02.946Z,983.83
2018-12-03T00:37:02.967Z,983.8
2018-12-03T00:38:02.992Z,983.83
2018-12-03T00:39:03.009Z,983.81
2018-12-03T00:40:03.031Z,983.85
2018-12-03T00:41:03.052Z,983.86
2018-12-03T00:42:03.074Z,983.83
2018-12-03T00:43:03.098Z,983.81
2018-12-03T00:44:03.115Z,983.84
2018-12-03T00:45:03.140Z,983.82
2018-12-03T00:46:03.158Z,983.82
2018-12-03T00:47:03.180Z,983.83
2018-12-03T00:48:03.201Z,983.8
2018-12-03T00:49:03.222Z,983.82
2018-12-03T00:50:03.244Z,983.83
2018-12-03T00:51:03.266Z,983.83
2018-12-03T00:52:03.291Z,983.83
2018-12-03T00:53:03.314Z,983.83
2018-12-03T00:54:03.330Z,983.79
2018-12-03T00:55:03.350Z,983.74
2018-12-03T00:56:03.378Z,983.73
2018-12-03T00:57:03.397Z,983.72
2018-12-03T00:58:03.414Z,983.72
2018-12-03T00:59:03.437Z,983.71
2018-12-03T01:00:03.457Z,983.71
2018-12-03T01:01:03.484Z,983.68
2018-12-03T01:02:03.499Z,983.73
2018-12-03T01:03:03.521Z,983.63
2018-12-03T01:04:03.543Z,983.68
2018-12-03T01:05:03.564Z,983.72
2018-12-03T01:06:03.586Z,983.75
2018-12-03T01:07:03.611Z,983.74
2018-12-03T01:08:03.629Z,983.7
2018-12-03T01:09:03.649Z,983.73
2018-12-03T01:10:03.672Z,983.69
2018-12-03T01:11:03.692Z,983.65
2018-12-03T01:12:03.714Z,983.69
2018-12-03T01:13:03.735Z,983.69
2018-12-03T01:14:03.758Z,983.67
2018-12-03T01:15:03.777Z,983.7
2018-12-03T01:16:03.802Z,983.65
2018-12-03T01:17:03.820Z,983.67
2018-12-03T01:18:03.843Z,983.67
2018-12-03T01:19:03.864Z,983.72
2018-12-03T01:20:03.888Z,983.71
2018-12-03T01:21:03.905Z,983.7
2018-12-03T01:22:03.931Z,983.74
2018-12-03T01:23:03.949Z,983.71
2018-12-03T01:24:03.970Z,983.69
2018-12-03T01:25:03.995Z,983.74
2018-12-03T01:26:04.013Z,983.69
2018-12-03T01:27:04.033Z,983.73
2018-12-03T01:28:04.055Z,983.72
2018-12-03T01:29:04.077Z,983.68
2018-12-03T01:30:04.099Z,983.72
2018-12-03T01:31:04.120Z,983.73
2018-12-03T01:32:04.144Z,983.72
2018-12-03T01:33:04.165Z,983.76
2018-12-03T01:34:04.183Z,983.77
2018-12-03T01:35:04.205Z,983.74
2018-12-03T01:36:04.227Z,983.71
2018-12-03T01:37:04.249Z,983.72
2018-12-03T01:38:04.274Z,983.7
2018-12-03T01:39:04.293Z,983.73
2018-12-03T01:40:04.315Z,983.7
2018-12-03T01:41:04.333Z,983.64
2018-12-03T01:42:04.361Z,983.66
2018-12-03T01:43:04.376Z,983.62
2018-12-03T01:44:04.398Z,983.62
2018-12-03T01:45:04.419Z,983.65
2018-12-03T01:46:04.440Z,983.62
2018-12-03T01:47:04.463Z,983.63
2018-12-03T01:48:04.482Z,983.59
2018-12-03T01:49:04.505Z,983.63
2018-12-03T01:50:04.525Z,983.61
2018-12-03T01:51:04.552Z,983.6
2018-12-03T01:52:04.573Z,983.58
2018-12-03T01:53:04.591Z,983.59
2018-12-03T01:54:04.612Z,983.59
2018-12-03T01:55:04.633Z,983.62
2018-12-03T01:56:04.653Z,983.61
2018-12-03T01:57:04.679Z,983.58
2018-12-03T01:58:04.696Z,983.61
2018-12-03T01:59:04.722Z,983.55
2018-12-03T02:00:04.744Z,983.52
2018-12-03T02:01:04.761Z,983.48
2018-12-03T02:02:04.780Z,983.48
2018-12-03T02:03:04.805Z,983.45
2018-12-03T02:04:04.829Z,983.5
2018-12-03T02:05:04.846Z,983.45
2018-12-03T02:06:04.871Z,983.4
2018-12-03T02:07:04.889Z,983.45
2018-12-03T02:08:04.910Z,983.46
2018-12-03T02:09:04.935Z,983.44
2018-12-03T02:10:04.953Z,983.49
2018-12-03T02:11:04.974Z,983.45
2018-12-03T02:12:04.995Z,983.47
2018-12-03T02:13:05.017Z,983.47
2018-12-03T02:14:05.042Z,983.44
2018-12-03T02:15:05.061Z,983.45
2018-12-03T02:16:05.083Z,983.47
2018-12-03T02:17:05.101Z,983.46
2018-12-03T02:18:05.142Z,983.45
2018-12-03T02:19:05.150Z,983.47
2018-12-03T02:20:05.168Z,983.48
2018-12-03T02:21:05.190Z,983.48
2018-12-03T02:22:05.212Z,983.43
2018-12-03T02:23:05.234Z,983.43
2018-12-03T02:24:05.251Z,983.43
2018-12-03T02:25:05.273Z,983.44
2018-12-03T02:26:05.295Z,983.46
2018-12-03T02:27:05.316Z,983.47
2018-12-03T02:28:05.336Z,983.5
2018-12-03T02:29:05.357Z,983.53
2018-12-03T02:30:05.384Z,983.5
2018-12-03T02:31:05.403Z,983.52
2018-12-03T02:32:05.424Z,983.47
2018-12-03T02:33:05.444Z,983.52
2018-12-03T02:34:05.477Z,983.56
2018-12-03T02:35:05.486Z,983.57
2018-12-03T02:36:05.506Z,983.61
2018-12-03T02:37:05.533Z,983.6
2018-12-03T02:38:05.555Z,983.58
2018-12-03T02:39:05.572Z,983.57
2018-12-03T02:40:05.595Z,983.57
2018-12-03T02:41:05.615Z,983.57
2018-12-03T02:42:05.634Z,983.61
2018-12-03T02:43:05.657Z,983.58
2018-12-03T02:44:05.677Z,983.6
2018-12-03T02:45:05.698Z,983.67
2018-12-03T02:46:05.719Z,983.72
2018-12-03T02:47:05.741Z,983.74
2018-12-03T02:48:05.768Z,983.7
2018-12-03T02:49:05.783Z,983.71
2018-12-03T02:50:05.802Z,983.67
2018-12-03T02:51:05.825Z,983.66
2018-12-03T02:52:05.848Z,983.57
2018-12-03T02:53:05.868Z,983.59
2018-12-03T02:54:05.890Z,983.61
2018-12-03T02:55:05.918Z,983.65
2018-12-03T02:56:05.931Z,983.59
2018-12-03T02:57:05.956Z,983.52
2018-12-03T02:58:05.978Z,983.63
2018-12-03T02:59:05.997Z,983.58
2018-12-03T03:00:06.020Z,983.58
2018-12-03T03:01:06.041Z,983.55
2018-12-03T03:02:06.064Z,983.59
2018-12-03T03:03:06.081Z,983.57
2018-12-03T03:04:06.102Z,983.51
2018-12-03T03:05:06.127Z,983.51
2018-12-03T03:06:06.145Z,983.54
2018-12-03T03:07:06.165Z,983.53
2018-12-03T03:08:06.191Z,983.57
2018-12-03T03:09:06.207Z,983.51
2018-12-03T03:10:06.228Z,983.5
2018-12-03T03:11:06.253Z,983.47
2018-12-03T03:12:06.272Z,983.5
2018-12-03T03:13:06.294Z,983.47
2018-12-03T03:14:06.314Z,983.49
2018-12-03T03:15:06.339Z,983.49
2018-12-03T03:16:06.356Z,983.52
2018-12-03T03:17:06.380Z,983.48
2018-12-03T03:18:06.402Z,983.51
2018-12-03T03:19:06.425Z,983.47
2018-12-03T03:20:06.448Z,983.47
2018-12-03T03:21:06.464Z,983.48
2018-12-03T03:22:06.485Z,983.49
2018-12-03T03:23:06.506Z,983.51
2018-12-03T03:24:06.528Z,983.48
2018-12-03T03:25:06.548Z,983.42
2018-12-03T03:26:06.568Z,983.36
2018-12-03T03:27:06.590Z,983.4
2018-12-03T03:28:06.612Z,983.4
2018-12-03T03:29:06.635Z,983.38
2018-12-03T03:30:06.655Z,983.38
2018-12-03T03:31:06.675Z,983.37
2018-12-03T03:32:06.698Z,983.39
2018-12-03T03:33:06.728Z,983.28
2018-12-03T03:34:06.739Z,983.25
2018-12-03T03:35:06.761Z,983.31
2018-12-03T03:36:06.781Z,983.31
2018-12-03T03:37:06.803Z,983.31
2018-12-03T03:38:06.827Z,983.23
2018-12-03T03:39:06.859Z,983.23
2018-12-03T03:40:06.867Z,983.19
2018-12-03T03:41:06.887Z,983.25
2018-12-03T03:42:06.911Z,983.2
2018-12-03T03:43:06.931Z,983.24
2018-12-03T03:44:06.952Z,983.28
2018-12-03T03:45:06.971Z,983.24
2018-12-03T03:46:06.992Z,983.26
2018-12-03T03:47:07.018Z,983.3
2018-12-03T03:48:07.035Z,983.29
2018-12-03T03:49:07.060Z,983.25
2018-12-03T03:50:07.081Z,983.29
2018-12-03T03:51:07.104Z,983.27
2018-12-03T03:52:07.122Z,983.31
2018-12-03T03:53:07.141Z,983.29
2018-12-03T03:54:07.167Z,983.29
2018-12-03T03:55:07.186Z,983.26
2018-12-03T03:56:07.205Z,983.27
2018-12-03T03:57:07.232Z,983.24
2018-12-03T03:58:07.254Z,983.25
2018-12-03T03:59:07.267Z,983.27
2018-12-03T04:00:07.288Z,983.27
2018-12-03T04:01:07.314Z,983.28
2018-12-03T04:02:07.334Z,983.29
2018-12-03T04:03:07.351Z,983.23
2018-12-03T04:04:07.374Z,983.24
2018-12-03T04:05:07.398Z,983.3
2018-12-03T04:06:07.415Z,983.3
2018-12-03T04:07:07.441Z,983.32
2018-12-03T04:08:07.457Z,983.28
2018-12-03T04:09:07.478Z,983.25
2018-12-03T04:10:07.498Z,983.27
2018-12-03T04:11:07.521Z,983.24
2018-12-03T04:12:07.544Z,983.27
2018-12-03T04:13:07.565Z,983.29
2018-12-03T04:14:07.590Z,983.29
2018-12-03T04:15:07.607Z,983.34
2018-12-03T04:16:07.627Z,983.29
2018-12-03T04:17:07.649Z,983.26
2018-12-03T04:18:07.668Z,983.28
2018-12-03T04:19:07.694Z,983.31
2018-12-03T04:20:07.715Z,983.26
2018-12-03T04:21:07.732Z,983.28
2018-12-03T04:22:07.753Z,983.27
2018-12-03T04:23:07.773Z,983.24
2018-12-03T04:24:07.802Z,983.18
2018-12-03T04:25:07.816Z,983.2
2018-12-03T04:26:07.838Z,983.11
2018-12-03T04:27:07.862Z,983.15
2018-12-03T04:28:07.885Z,983.14
2018-12-03T04:29:07.904Z,983.16
2018-12-03T04:30:07.922Z,983.16
2018-12-03T04:31:07.944Z,983.24
2018-12-03T04:32:07.970Z,983.27
2018-12-03T04:33:07.991Z,983.27
2018-12-03T04:34:08.012Z,983.3
2018-12-03T04:35:08.036Z,983.32
2018-12-03T04:36:08.051Z,983.34
2018-12-03T04:37:08.075Z,983.34
2018-12-03T04:38:08.101Z,983.31
2018-12-03T04:39:08.111Z,983.3
2018-12-03T04:40:08.138Z,983.34
2018-12-03T04:41:08.159Z,983.27
2018-12-03T04:42:08.178Z,983.21
2018-12-03T04:43:08.202Z,983.21
2018-12-03T04:44:08.221Z,983.21
2018-12-03T04:45:08.241Z,983.16
2018-12-03T04:46:08.263Z,983.15
2018-12-03T04:47:08.286Z,983.17
2018-12-03T04:48:08.307Z,983.18
2018-12-03T04:49:08.329Z,983.2
2018-12-03T04:50:08.348Z,983.23
2018-12-03T04:51:08.370Z,983.2
2018-12-03T04:52:08.392Z,983.3
2018-12-03T04:53:08.414Z,983.3
2018-12-03T04:54:08.434Z,983.33
2018-12-03T04:55:08.455Z,983.38
2018-12-03T04:56:08.476Z,983.45
2018-12-03T04:57:08.499Z,983.44
2018-12-03T04:58:08.520Z,983.37
2018-12-03T04:59:08.540Z,983.4
2018-12-03T05:00:08.565Z,983.35
2018-12-03T05:01:08.582Z,983.39
2018-12-03T05:02:08.604Z,983.41
2018-12-03T05:03:08.629Z,983.33
2018-12-03T05:04:08.649Z,983.37
2018-12-03T05:05:08.667Z,983.32
2018-12-03T05:06:08.688Z,983.36
2018-12-03T05:07:08.716Z,983.42
2018-12-03T05:08:08.732Z,983.46
2018-12-03T05:09:08.753Z,983.46
2018-12-03T05:10:08.782Z,983.46
2018-12-03T05:11:08.800Z,983.51
2018-12-03T05:12:08.821Z,983.6
2018-12-03T05:13:08.839Z,983.55
2018-12-03T05:14:08.860Z,983.49
2018-12-03T05:15:08.883Z,983.54
2018-12-03T05:16:08.906Z,983.43
2018-12-03T05:17:08.928Z,983.62
2018-12-03T05:18:08.950Z,983.7
2018-12-03T05:19:08.964Z,983.7
2018-12-03T05:20:08.988Z,983.86
2018-12-03T05:21:09.015Z,983.9
2018-12-03T05:22:09.032Z,983.85
2018-12-03T05:23:09.051Z,983.85
2018-12-03T05:24:09.077Z,983.82
2018-12-03T05:25:09.094Z,983.73
2018-12-03T05:26:09.116Z,983.73
2018-12-03T05:27:09.136Z,983.67
2018-12-03T05:28:09.158Z,983.62
2018-12-03T05:29:09.180Z,983.57
2018-12-03T05:30:09.202Z,983.47
2018-12-03T05:31:09.226Z,983.49
2018-12-03T05:32:09.243Z,983.53
2018-12-03T05:33:09.266Z,983.67
2018-12-03T05:34:09.286Z,983.76
2018-12-03T05:35:09.313Z,983.72
2018-12-03T05:36:09.328Z,983.78
2018-12-03T05:37:09.351Z,983.74
2018-12-03T05:38:09.372Z,983.79
2018-12-03T05:39:09.393Z,983.78
2018-12-03T05:40:09.414Z,983.8
2018-12-03T05:41:09.435Z,983.82
2018-12-03T05:42:09.458Z,983.84
2018-12-03T05:43:09.482Z,983.78
2018-12-03T05:44:09.500Z,983.78
2018-12-03T05:45:09.529Z,983.88
2018-12-03T05:46:09.543Z,983.96
2018-12-03T05:47:09.564Z,984
2018-12-03T05:48:09.589Z,983.94
2018-12-03T05:49:09.605Z,984.07
2018-12-03T05:50:09.631Z,984.03
2018-12-03T05:51:09.653Z,983.93
2018-12-03T05:52:09.670Z,983.9
2018-12-03T05:53:09.695Z,983.95
2018-12-03T05:54:09.716Z,983.95
2018-12-03T05:55:09.737Z,983.9
2018-12-03T05:56:09.758Z,983.89
2018-12-03T05:57:09.775Z,983.87
2018-12-03T05:58:09.798Z,983.89
2018-12-03T05:59:09.819Z,983.94
2018-12-03T06:00:09.844Z,983.96
2018-12-03T06:01:09.860Z,983.84
2018-12-03T06:02:09.887Z,983.86
2018-12-03T06:03:09.908Z,983.84
2018-12-03T06:04:09.925Z,983.86
2018-12-03T06:05:09.947Z,983.85
2018-12-03T06:06:09.969Z,983.84
2018-12-03T06:07:09.993Z,983.79
2018-12-03T06:08:10.011Z,983.84
2018-12-03T06:09:10.033Z,983.87
2018-12-03T06:10:10.055Z,983.93
2018-12-03T06:11:10.075Z,983.86
2018-12-03T06:12:10.102Z,983.85
2018-12-03T06:13:10.121Z,983.93
2018-12-03T06:14:10.138Z,983.92
2018-12-03T06:15:10.159Z,983.87
2018-12-03T06:16:10.182Z,983.91
2018-12-03T06:17:10.206Z,983.89
2018-12-03T06:18:10.224Z,983.86
2018-12-03T06:19:10.249Z,983.73
2018-12-03T06:20:10.267Z,983.77
2018-12-03T06:21:10.291Z,983.73
2018-12-03T06:22:10.309Z,983.81
2018-12-03T06:23:10.331Z,983.83
2018-12-03T06:24:10.356Z,983.85
2018-12-03T06:25:10.378Z,983.83
2018-12-03T06:26:10.399Z,983.92
2018-12-03T06:27:10.416Z,983.85
2018-12-03T06:28:10.441Z,983.88
2018-12-03T06:29:10.462Z,983.8
2018-12-03T06:30:10.481Z,983.86
2018-12-03T06:31:10.501Z,983.85
2018-12-03T06:32:10.521Z,983.91
2018-12-03T06:33:10.542Z,983.88
2018-12-03T06:34:10.565Z,983.87
2018-12-03T06:35:10.586Z,983.89
2018-12-03T06:36:10.606Z,983.86
2018-12-03T06:37:10.628Z,983.88
2018-12-03T06:38:15.266Z,983.84
2018-12-03T06:39:10.674Z,983.85
2018-12-03T06:40:10.692Z,983.82
2018-12-03T06:41:10.717Z,983.86
2018-12-03T06:42:10.735Z,983.92
2018-12-03T06:43:10.757Z,983.86
2018-12-03T06:44:10.777Z,983.83
2018-12-03T06:45:10.798Z,983.83
2018-12-03T06:46:10.823Z,983.84
2018-12-03T06:47:10.841Z,983.82
2018-12-03T06:48:10.863Z,983.83
2018-12-03T06:49:10.882Z,983.87
2018-12-03T06:50:10.904Z,983.92
2018-12-03T06:51:10.924Z,983.92
2018-12-03T06:52:10.946Z,983.94
2018-12-03T06:53:10.968Z,983.94
2018-12-03T06:54:10.989Z,983.96
2018-12-03T06:55:11.009Z,983.92
2018-12-03T06:56:11.038Z,983.92
2018-12-03T06:57:11.053Z,983.88
2018-12-03T06:58:11.073Z,983.87
2018-12-03T06:59:11.097Z,983.9
2018-12-03T07:00:11.115Z,983.9
2018-12-03T07:01:11.136Z,983.83
2018-12-03T07:02:11.157Z,983.87
2018-12-03T07:03:11.178Z,983.9
2018-12-03T07:04:11.199Z,983.83
2018-12-03T07:05:11.222Z,983.84
2018-12-03T07:06:11.242Z,983.86
2018-12-03T07:07:11.264Z,983.87
2018-12-03T07:08:11.285Z,983.89
2018-12-03T07:09:11.309Z,983.87
2018-12-03T07:10:11.331Z,983.88
2018-12-03T07:11:11.346Z,983.88
2018-12-03T07:12:11.373Z,983.87
2018-12-03T07:13:11.391Z,983.87
2018-12-03T07:14:11.412Z,983.87
2018-12-03T07:15:11.438Z,983.85
2018-12-03T07:16:11.453Z,983.87
2018-12-03T07:17:12.814Z,983.87
2018-12-03T07:18:11.497Z,983.85
2018-12-03T07:19:11.518Z,983.89
2018-12-03T07:20:11.538Z,983.87
2018-12-03T07:21:11.560Z,983.81
2018-12-03T07:22:11.581Z,983.82
2018-12-03T07:23:11.603Z,983.79
2018-12-03T07:24:11.623Z,983.82
2018-12-03T07:25:11.644Z,983.82
2018-12-03T07:26:11.672Z,983.83
2018-12-03T07:27:11.686Z,983.85
2018-12-03T07:28:11.707Z,983.85
2018-12-03T07:29:11.733Z,983.92
2018-12-03T07:30:11.750Z,983.89
2018-12-03T07:31:11.771Z,983.89
2018-12-03T07:32:11.797Z,983.92
2018-12-03T07:33:11.814Z,983.97
2018-12-03T07:34:11.839Z,983.95
2018-12-03T07:35:11.860Z,983.96
2018-12-03T07:36:11.878Z,983.94
2018-12-03T07:37:11.900Z,984
2018-12-03T07:38:11.918Z,984
2018-12-03T07:39:11.940Z,983.99
2018-12-03T07:40:11.961Z,983.99
2018-12-03T07:41:11.981Z,984.01
2018-12-03T07:42:12.003Z,984.01
2018-12-03T07:43:12.025Z,984.03
2018-12-03T07:44:12.050Z,984.05
2018-12-03T07:45:12.066Z,984.05
2018-12-03T07:46:12.092Z,984.06
2018-12-03T07:47:12.109Z,984.07
2018-12-03T07:48:12.133Z,984.11
2018-12-03T07:49:12.151Z,984.17
2018-12-03T07:50:12.173Z,984.18
2018-12-03T07:51:12.194Z,984.18
2018-12-03T07:52:12.219Z,984.22
2018-12-03T07:53:12.235Z,984.29
2018-12-03T07:54:13.160Z,984.22
2018-12-03T07:55:12.278Z,984.25
2018-12-03T07:56:12.302Z,984.28
2018-12-03T07:57:12.320Z,984.28
2018-12-03T07:58:12.342Z,984.33
2018-12-03T07:59:12.363Z,984.35
2018-12-03T08:00:12.394Z,984.31
2018-12-03T08:01:12.409Z,984.33
2018-12-03T08:02:12.427Z,984.32
2018-12-03T08:03:12.447Z,984.31
2018-12-03T08:04:12.472Z,984.32
2018-12-03T08:05:12.493Z,984.34
2018-12-03T08:06:12.511Z,984.35
2018-12-03T08:07:12.532Z,984.32
2018-12-03T08:08:12.557Z,984.33
2018-12-03T08:09:12.576Z,984.29
2018-12-03T08:10:12.595Z,984.34
2018-12-03T08:11:12.617Z,984.37
2018-12-03T08:12:12.638Z,984.41
2018-12-03T08:13:12.663Z,984.4
2018-12-03T08:14:12.686Z,984.4
2018-12-03T08:15:12.702Z,984.46
2018-12-03T08:16:12.725Z,984.43
2018-12-03T08:17:12.745Z,984.41
2018-12-03T08:18:12.764Z,984.47
2018-12-03T08:19:12.790Z,984.41
2018-12-03T08:20:12.808Z,984.42
2018-12-03T08:21:12.829Z,984.44
2018-12-03T08:22:12.849Z,984.37
2018-12-03T08:23:12.876Z,984.41
2018-12-03T08:24:12.894Z,984.43
2018-12-03T08:25:12.913Z,984.43
2018-12-03T08:26:12.939Z,984.45
2018-12-03T08:27:12.955Z,984.47
2018-12-03T08:28:12.978Z,984.47
2018-12-03T08:29:13.001Z,984.45
2018-12-03T08:30:13.056Z,984.47
2018-12-03T08:31:13.045Z,984.49
2018-12-03T08:32:13.067Z,984.51
2018-12-03T08:33:13.085Z,984.57
2018-12-03T08:34:13.105Z,984.6
2018-12-03T08:35:13.126Z,984.49
2018-12-03T08:36:13.148Z,984.54
2018-12-03T08:37:13.169Z,984.51
2018-12-03T08:38:13.194Z,984.51
2018-12-03T08:39:13.215Z,984.53
2018-12-03T08:40:13.234Z,984.58
2018-12-03T08:41:13.253Z,984.54
2018-12-03T08:42:13.275Z,984.51
2018-12-03T08:43:13.297Z,984.56
2018-12-03T08:44:13.562Z,984.58
2018-12-03T08:45:13.340Z,984.62
2018-12-03T08:46:13.363Z,984.65
2018-12-03T08:47:13.382Z,984.66
2018-12-03T08:48:13.401Z,984.64
2018-12-03T08:49:13.427Z,984.65
2018-12-03T08:50:13.449Z,984.65
2018-12-03T08:51:13.470Z,984.67
2018-12-03T08:52:13.490Z,984.65
2018-12-03T08:53:13.512Z,984.62
2018-12-03T08:54:13.534Z,984.62
2018-12-03T08:55:13.551Z,984.66
2018-12-03T08:56:13.572Z,984.68
2018-12-03T08:57:13.594Z,984.71
2018-12-03T08:58:13.619Z,984.7
2018-12-03T08:59:13.634Z,984.7
2018-12-03T09:00:13.658Z,984.74
2018-12-03T09:01:13.678Z,984.69
2018-12-03T09:02:13.705Z,984.74
2018-12-03T09:03:13.724Z,984.71
2018-12-03T09:04:13.742Z,984.76
2018-12-03T09:05:13.762Z,984.75
2018-12-03T09:06:13.786Z,984.82
2018-12-03T09:07:13.808Z,984.8
2018-12-03T09:08:13.827Z,984.81
2018-12-03T09:09:13.859Z,984.79
2018-12-03T09:10:13.869Z,984.84
2018-12-03T09:11:13.894Z,984.8
2018-12-03T09:12:13.912Z,984.79
2018-12-03T09:13:13.932Z,984.81
2018-12-03T09:14:13.954Z,984.82
2018-12-03T09:15:13.976Z,984.81
2018-12-03T09:16:13.996Z,984.79
2018-12-03T09:17:14.017Z,984.84
2018-12-03T09:18:14.038Z,984.83
2018-12-03T09:19:14.062Z,984.81
2018-12-03T09:20:14.082Z,984.8
2018-12-03T09:21:14.110Z,984.79
2018-12-03T09:22:14.123Z,984.8
2018-12-03T09:23:14.157Z,984.73
2018-12-03T09:24:14.167Z,984.8
2018-12-03T09:25:14.187Z,984.78
2018-12-03T09:26:14.210Z,984.83
2018-12-03T09:27:14.238Z,984.85
2018-12-03T09:28:14.254Z,984.84
2018-12-03T09:29:14.275Z,984.89
2018-12-03T09:30:14.297Z,984.92
2018-12-03T09:31:14.314Z,984.92
2018-12-03T09:32:14.340Z,984.94
2018-12-03T09:33:14.358Z,984.91
2018-12-03T09:34:14.380Z,984.97
2018-12-03T09:35:14.401Z,984.99
2018-12-03T09:36:14.425Z,985.02
2018-12-03T09:37:14.443Z,985.03
2018-12-03T09:38:14.465Z,985.05
2018-12-03T09:39:14.487Z,985.08
2018-12-03T09:40:14.511Z,985.02
2018-12-03T09:41:14.532Z,985.01
2018-12-03T09:42:14.550Z,985.03
2018-12-03T09:43:14.569Z,984.99
2018-12-03T09:44:14.595Z,984.96
2018-12-03T09:45:14.616Z,985.04
2018-12-03T09:46:14.634Z,985.05
2018-12-03T09:47:14.659Z,985
2018-12-03T09:48:14.676Z,985
2018-12-03T09:49:14.698Z,985.01
2018-12-03T09:50:14.722Z,984.97
2018-12-03T09:51:14.744Z,985
2018-12-03T09:52:14.762Z,984.99
2018-12-03T09:53:14.787Z,985.01
2018-12-03T09:54:14.807Z,985
2018-12-03T09:55:14.826Z,984.96
2018-12-03T09:56:14.851Z,984.95
2018-12-03T09:57:14.869Z,984.96
2018-12-03T09:58:14.892Z,985
2018-12-03T09:59:14.910Z,984.94
2018-12-03T10:00:14.933Z,984.92
2018-12-03T10:01:14.956Z,984.97
2018-12-03T10:02:14.975Z,984.92
2018-12-03T10:03:14.999Z,984.9
2018-12-03T10:04:15.017Z,984.94
2018-12-03T10:05:15.038Z,984.99
2018-12-03T10:06:15.060Z,985.04
2018-12-03T10:07:15.080Z,985.08
2018-12-03T10:08:15.100Z,985.02
2018-12-03T10:09:15.123Z,984.93
2018-12-03T10:10:15.144Z,984.85
2018-12-03T10:11:15.169Z,984.86
2018-12-03T10:12:18.174Z,984.83
2018-12-03T10:13:15.209Z,984.81
2018-12-03T10:14:15.229Z,984.78
2018-12-03T10:15:15.253Z,984.76
2018-12-03T10:16:15.271Z,984.7
2018-12-03T10:17:15.297Z,984.65
2018-12-03T10:18:15.332Z,984.65
2018-12-03T10:19:15.339Z,984.66
2018-12-03T10:20:15.358Z,984.7
2018-12-03T10:21:15.379Z,984.64
2018-12-03T10:22:15.401Z,984.71
2018-12-03T10:23:15.421Z,984.69
2018-12-03T10:24:15.443Z,984.72
2018-12-03T10:25:15.465Z,984.66
2018-12-03T10:26:15.489Z,984.61
2018-12-03T10:27:15.505Z,984.63
2018-12-03T10:28:15.531Z,984.59
2018-12-03T10:29:15.549Z,984.61
2018-12-03T10:30:15.573Z,984.59
2018-12-03T10:31:15.592Z,984.62
2018-12-03T10:32:15.616Z,984.59
2018-12-03T10:33:15.639Z,984.59
2018-12-03T10:34:15.655Z,984.63
2018-12-03T10:35:15.680Z,984.52
2018-12-03T10:36:15.712Z,984.55
2018-12-03T10:37:15.722Z,984.56
2018-12-03T10:38:15.746Z,984.58
2018-12-03T10:39:15.764Z,984.52
2018-12-03T10:40:15.789Z,984.49
2018-12-03T10:41:15.807Z,984.47
2018-12-03T10:42:15.827Z,984.48
2018-12-03T10:43:15.854Z,984.5
2018-12-03T10:44:15.872Z,984.49
2018-12-03T10:45:15.897Z,984.47
2018-12-03T10:46:15.917Z,984.52
2018-12-03T10:47:15.935Z,984.58
2018-12-03T10:48:15.957Z,984.53
2018-12-03T10:49:15.982Z,984.5
2018-12-03T10:50:16.003Z,984.5
2018-12-03T10:51:16.022Z,984.55
2018-12-03T10:52:16.045Z,984.51
2018-12-03T10:53:16.063Z,984.43
2018-12-03T10:54:16.089Z,984.46
2018-12-03T10:55:16.107Z,984.43
2018-12-03T10:56:17.312Z,984.48
2018-12-03T10:57:16.149Z,984.48
2018-12-03T10:58:16.178Z,984.44
2018-12-03T10:59:16.191Z,984.47
2018-12-03T11:00:16.214Z,984.43
2018-12-03T11:01:16.234Z,984.42
2018-12-03T11:02:16.257Z,984.4
2018-12-03T11:03:16.281Z,984.4
2018-12-03T11:04:16.302Z,984.38
2018-12-03T11:05:16.321Z,984.41
2018-12-03T11:06:16.343Z,984.38
2018-12-03T11:07:16.371Z,984.42
2018-12-03T11:08:16.385Z,984.43
2018-12-03T11:09:16.408Z,984.43
2018-12-03T11:10:16.428Z,984.41
2018-12-03T11:11:16.453Z,984.41
2018-12-03T11:12:16.471Z,984.48
2018-12-03T11:13:16.492Z,984.5
2018-12-03T11:14:16.515Z,984.46
2018-12-03T11:15:16.540Z,984.46
2018-12-03T11:16:16.557Z,984.39
2018-12-03T11:17:16.577Z,984.43
2018-12-03T11:18:16.601Z,984.48
2018-12-03T11:19:16.624Z,984.49
2018-12-03T11:20:16.648Z,984.49
2018-12-03T11:21:16.667Z,984.44
2018-12-03T11:22:16.687Z,984.42
2018-12-03T11:23:16.707Z,984.47
2018-12-03T11:24:16.728Z,984.45
2018-12-03T11:25:16.749Z,984.49
2018-12-03T11:26:16.772Z,984.48
2018-12-03T11:27:16.792Z,984.42
2018-12-03T11:28:16.815Z,984.44
2018-12-03T11:29:16.836Z,984.44
2018-12-03T11:30:16.862Z,984.39
2018-12-03T11:31:16.879Z,984.44
2018-12-03T11:32:16.899Z,984.42
2018-12-03T11:33:16.922Z,984.45
2018-12-03T11:34:16.943Z,984.43
2018-12-03T11:35:16.966Z,984.39
2018-12-03T11:36:16.986Z,984.36
2018-12-03T11:37:17.008Z,984.35
2018-12-03T11:38:17.030Z,984.35
2018-12-03T11:39:17.051Z,984.35
2018-12-03T11:40:17.072Z,984.35
2018-12-03T11:41:17.093Z,984.29
2018-12-03T11:42:17.115Z,984.32
2018-12-03T11:43:17.139Z,984.32
2018-12-03T11:44:17.157Z,984.3
2018-12-03T11:45:17.181Z,984.28
2018-12-03T11:46:17.204Z,984.24
2018-12-03T11:47:17.226Z,984.19
2018-12-03T11:48:17.245Z,984.25
2018-12-03T11:49:17.265Z,984.25
2018-12-03T11:50:17.290Z,984.21
2018-12-03T11:51:17.312Z,984.25
2018-12-03T11:52:17.330Z,984.34
2018-12-03T11:53:18.359Z,984.27
2018-12-03T11:54:17.372Z,984.25
2018-12-03T11:55:17.394Z,984.29
2018-12-03T11:56:17.415Z,984.29
2018-12-03T11:57:17.438Z,984.28
2018-12-03T11:58:17.461Z,984.32
2018-12-03T11:59:17.481Z,984.32
2018-12-03T12:00:17.506Z,984.37
2018-12-03T12:01:17.523Z,984.4
2018-12-03T12:02:17.544Z,984.38
2018-12-03T12:03:17.566Z,984.4
2018-12-03T12:04:17.591Z,984.39
2018-12-03T12:05:17.611Z,984.38
2018-12-03T12:06:17.634Z,984.37
2018-12-03T12:07:17.658Z,984.36
2018-12-03T12:08:17.675Z,984.34
2018-12-03T12:09:20.943Z,984.39
2018-12-03T12:10:17.717Z,984.36
2018-12-03T12:11:17.737Z,984.29
2018-12-03T12:12:17.776Z,984.28
2018-12-03T12:13:17.781Z,984.26
2018-12-03T12:14:17.802Z,984.21
2018-12-03T12:15:17.825Z,984.24
2018-12-03T12:16:17.845Z,984.17
2018-12-03T12:17:17.865Z,984.16
2018-12-03T12:18:17.893Z,984.18
2018-12-03T12:19:17.912Z,984.17
2018-12-03T12:20:17.934Z,984.19
2018-12-03T12:21:17.952Z,984.12
2018-12-03T12:22:17.974Z,984.16
2018-12-03T12:23:17.994Z,984.12
2018-12-03T12:24:18.021Z,984.09
2018-12-03T12:25:18.039Z,984.06
2018-12-03T12:26:18.061Z,984.05
2018-12-03T12:27:18.084Z,984.04
2018-12-03T12:28:18.107Z,984.1
2018-12-03T12:29:18.125Z,984.06
2018-12-03T12:30:18.148Z,984.05
2018-12-03T12:31:18.166Z,984.01